Aviation WX Report

Aviation WX Report (1)

                                                                                                   GENERAL AVIATION FORECAST ST. MAARTEN

 

DATE ISSUED: August 03th , 2017 VALID TIME: 12:00 -24:00Z

 

AREA OF COVERAGE: TNCM TMA (Bounded by 18.25N 063.39W, 18.25N 062.51W, 17.47N 062.22W, 17.26N 062.53W, 17.36N 063.39W AND 18.25N 063.39W)

 

LEVELS OF COVERAGE: MSL TO FL100

 
 

SIG WX : VCSH.

SIG. CLDS: FEW TCU 1700 – 2100 FT AND TOPS ABV FL100

SFC. VIS: 10+ KM.

 

FCST WNDS/TEMP ALOFT: 03/18:00Z

 

LEVEL

WINDS

TEMP

0500 FT

120/10KT

+28

1000 FT

130/15KT

+25

2000 FT

130/15KT

+23

3000 FT

130/15KT

+21

FL050

120/15KT

+19

FL080

110/15KT

+14

FL100

100/15KT

+10

L
 

EVEL WINDS TE

FZL: ABOVE FL100 SPECIAL FEATURES: NONE
 

TAF:

TNCM 031120Z 0312/0412 10007KT P6SM VCSH SCT016
  FM031400 11012KT P6SM SCT022
  FM032200 08009KT P6SM VCSH FEW020 SCT035

FORECASTER: ALBERT.

 

TAF TAPA 031700Z 0318/0418 11008KT 9999 SCT019
  PROB30 TEMPO 0318/0322 SHRA
  BECMG 0414/0416 04011KT
TAF TFFR 031700Z 0318/0418 16011KT 9999 FEW065
  PROB30 TEMPO 0401/0406 4000 SHRA SCT020TCU
TJSJ 031720Z 0318/0418 08012KT P6SM VCSH SCT030 SCT060
  TEMPO 0318/0320 4SM TSRA SCT025CB BKN050
  FM032000 08015KT P6SM VCTS SCT025CB BKN050
  FM032200 09009KT P6SM VCSH SCT025 SCT050
TAF TXKF 031738Z 0318/0418 13008KT 9999 SCT025
  TEMPO 0321/0406 VRB03KT
TAF LPAZ 031700Z 0318/0424 27010KT 9999 FEW008 SCT012
  TEMPO 0318/0424 5000 RADZ BR SCT004 BKN008
  PROB30 TEMPO 0318/0409 2000 DZRA BKN003
  BECMG 0400/0403 24010KT
BECMG 0418/0421 VRB05KT
TAF LPLA 031709Z 0318/0418 VRB05KT 9999 SCT022
  PROB40 TEMPO 0318/0416 8000 -SHRA SCT014 BKN02
17.36N 63.40W and 18.30N 63.40W).
Levels of Coverage: MSL to FL100.
SIG WX: ISOL SHRA.
SIG CLDS: FEW TCU 1000 - 1500FT AND TOPS ABV FL100.
SCT/ BKN LYR SC/AC 2000 - 3500FT AND TOPS ABV FL100.
SFC VIS: 10+ KM, 3 - 7 KM IN SHRA.
FCST WNDS/TEMP ALOFT: 14/ 18:00Z
0500 FT.. 200/10KT +26 FL050.....220/10KT +16
1000 FT.. 200/10KT +24 FL080.....220/05KT +11
2000 FT.. 210/15KT +22 FL100.....200/10KT +08
3000 FT.. 210/15KT +19
FZL: ABV FL100.
SPECIAL FEATURES:
NONE.
TAFS:
TAF TNCM 141200Z 1412/1512 14012KT P6SM VCSH BKN018 BKN035
FM141800 21008KT P6SM VCSH SCT022 SCT050=
Forecaster: DJF.

Save

Save

Save

Save

Save

Save

Save

Save

Save

Save

Save

Save

Save

Save

Save

Save

Save

Save

Save

Save

Save

Save

Save

Save

Save

Save

Save

Save

Save

Save

Save

Save

Save

Save

Save

Save

Save

Save

Save

Save

Save

Save

Save

Save

Save

Save

Save

Save

Save

Save

Save

Save

Save

Save

Save

Save

Save

Save

Save

Save

Save

Save

Save

Save

Save

Save

Save

Save

Save

Save

Save

Save

Save

Save

Save

Save

Save

Save

Save

Save

Save

Save

Save

Save

Save

Save

Save

Save

Save

Save

Save

Save

Save

Save

Save

Save

Save

Save

Save

Save

Save

Save

Save

Save

Save

Save

Save

Save

Save

Save

Save

Save

Save

Save

Save

Save

Save

Save

Save

Save

Save

Save

Save

Save

Save

Save

Save

Save

Save

Save

Save

Save

Save

Save

Save

Save

Save

Save

Save

International News

Go to top